Time;durP1;ratioP1;P1;durP2;ratioP2;P2;SDS_P1;SDS_P2;PMS_P1;PMS_P2;Temp;Humidity;BMP_temperature;BMP_pressure;BME280_temperature;BME280_humidity;BME280_pressure;Samples;Min_cycle;Max_cycle;Signal;HPM_P1;HPM_P2
2022/06/24 15:12:22;;;;;;;14.88;3.63;;;26.50;82.80;;;;;;6215294;22;1269402;-68
2022/06/24 15:14:48;;;;;;;;;;;26.50;83.30;;;;;;6151435;23;20362;-68
2022/06/24 15:18:54;;;;;;;4.40;3.63;;;26.80;81.40;;;;;;5031290;28;21161;-72
2022/06/24 15:21:19;;;;;;;;;;;27.20;80.50;;;;;;5012100;28;20135;-71
2022/06/24 15:23:45;;;;;;;6.57;3.72;;;27.20;80.20;;;;;;5014414;28;20428;-72
2022/06/24 15:26:12;;;;;;;;;;;27.20;80.10;;;;;;5007850;28;84776;-74
2022/06/24 15:28:39;;;;;;;7.55;3.85;;;27.20;80.10;;;;;;5022945;28;19905;-78
2022/06/24 15:31:20;;;;;;;9.10;4.30;;;27.10;80.40;;;;;;5016564;28;20250;-79
2022/06/24 15:33:51;;;;;;;7.43;3.78;;;27.20;80.50;;;;;;5021340;28;20141;-78
2022/06/24 15:36:17;;;;;;;9.10;4.50;;;27.30;80.40;;;;;;5033276;28;20017;-78
2022/06/24 15:38:45;;;;;;;6.05;4.10;;;27.30;80.30;;;;;;5028689;28;20048;-80
2022/06/24 15:41:18;;;;;;;7.13;3.90;;;27.50;80.00;;;;;;5032069;28;20026;-79
2022/06/24 15:43:52;;;;;;;8.38;4.30;;;27.50;79.20;;;;;;5033987;28;20053;-82
2022/06/24 15:46:19;;;;;;;9.45;4.05;;;27.60;79.90;;;;;;5022615;28;20025;-77
2022/06/24 15:48:44;;;;;;;5.30;3.55;;;27.60;79.30;;;;;;5019831;28;20032;-79
2022/06/24 15:51:10;;;;;;;;;;;27.60;79.10;;;;;;5015761;28;20029;-69
2022/06/24 15:53:37;;;;;;;8.60;3.90;;;27.50;79.70;;;;;;5013090;28;19909;-67
2022/06/24 15:56:03;;;;;;;4.97;3.53;;;27.40;80.30;;;;;;5012597;28;20018;-64
2022/06/24 15:58:37;;;;;;;;;;;27.50;80.50;;;;;;5016065;28;20547;-81
2022/06/24 16:01:04;;;;;;;10.98;4.32;;;27.60;80.00;;;;;;5025801;28;20015;-77
2022/06/24 16:03:30;;;;;;;5.70;3.30;;;27.70;79.00;;;;;;5016027;28;20105;-72
2022/06/24 16:05:57;;;;;;;;;;;27.70;78.50;;;;;;5014822;28;20124;-71
2022/06/24 16:08:22;;;;;;;6.30;3.47;;;27.70;77.90;;;;;;5008736;28;19978;-64
2022/06/24 16:10:48;;;;;;;;;;;27.70;77.80;;;;;;5040335;28;20030;-71
2022/06/24 16:13:13;;;;;;;7.00;3.58;;;27.70;78.00;;;;;;5015557;28;19950;-72
2022/06/24 16:15:39;;;;;;;6.68;3.65;;;27.60;78.40;;;;;;5012561;28;20636;-74
2022/06/24 16:18:05;;;;;;;;;;;27.50;78.80;;;;;;5014512;28;20029;-72
2022/06/24 16:20:33;;;;;;;5.35;3.25;;;27.40;78.70;;;;;;5010594;28;19944;-81
2022/06/24 16:22:59;;;;;;;8.10;4.10;;;27.50;78.70;;;;;;5017816;28;20022;-76
2022/06/24 16:30:58;;;;;;;6.82;3.60;;;27.50;78.30;;;;;;5005710;28;20049;-75
2022/06/24 16:33:26;;;;;;;;;;;27.60;78.20;;;;;;5010271;28;20030;-78
2022/06/24 16:35:54;;;;;;;9.73;4.13;;;27.70;78.90;;;;;;5003570;28;20632;-78
2022/06/24 16:38:20;;;;;;;9.02;3.65;;;27.70;77.70;;;;;;4998201;28;20549;-76
2022/06/24 16:40:46;;;;;;;;;;;27.50;77.20;;;;;;5000649;28;20041;-72
2022/06/24 16:43:17;;;;;;;7.80;3.50;;;27.50;77.40;;;;;;5001374;28;20668;-77
2022/06/24 16:45:49;;;;;;;8.30;3.40;;;27.50;77.70;;;;;;4999066;28;20042;-77
2022/06/24 16:48:18;;;;;;;4.65;3.13;;;27.50;78.00;;;;;;5002397;28;20029;-77
2022/06/24 16:50:46;;;;;;;6.65;3.42;;;27.50;77.30;;;;;;4997894;28;20079;-76
2022/06/24 16:53:14;;;;;;;6.13;3.92;;;27.50;77.40;;;;;;5002503;28;20021;-77
2022/06/24 16:55:41;;;;;;;5.60;3.10;;;27.40;78.30;;;;;;4997759;28;20716;-76
2022/06/24 16:58:10;;;;;;;7.32;3.35;;;27.40;77.60;;;;;;4999438;28;20064;-76
2022/06/24 17:00:39;;;;;;;7.88;3.60;;;27.30;78.00;;;;;;4997817;28;20030;-78
2022/06/24 17:03:07;;;;;;;7.07;3.55;;;27.40;78.40;;;;;;5006334;28;20063;-77
2022/06/24 17:05:37;;;;;;;6.95;3.70;;;27.40;78.30;;;;;;4999336;28;20067;-76
2022/06/24 17:08:06;;;;;;;5.15;3.42;;;27.40;78.30;;;;;;5012200;28;20022;-75
2022/06/24 17:10:35;;;;;;;6.85;3.72;;;27.30;78.30;;;;;;5002141;28;20033;-75
2022/06/24 17:13:24;;;;;;;6.68;3.75;;;27.20;78.30;;;;;;5010882;28;20080;-83
2022/06/24 17:15:51;;;;;;;16.33;4.63;;;27.20;78.90;;;;;;5016495;28;20423;-77
2022/06/24 17:18:24;;;;;;;6.07;3.72;;;27.10;79.00;;;;;;5000808;28;20057;-76
2022/06/24 17:20:50;;;;;;;8.23;3.97;;;27.00;79.20;;;;;;5004257;28;20032;-72
2022/06/24 17:23:17;;;;;;;6.93;4.10;;;27.00;79.40;;;;;;5011828;28;20025;-72
2022/06/24 17:25:45;;;;;;;7.05;3.72;;;26.90;79.60;;;;;;4995172;28;20113;-76
2022/06/24 17:28:11;;;;;;;6.65;3.55;;;26.90;79.60;;;;;;5000116;28;20689;-71
2022/06/24 17:30:36;;;;;;;;;;;27.00;79.60;;;;;;4996529;28;20067;-70
2022/06/24 17:33:02;;;;;;;8.00;3.50;;;27.00;79.50;;;;;;5001744;28;20790;-72
2022/06/24 17:35:28;;;;;;;;;;;27.00;79.80;;;;;;4997832;28;20030;-71
2022/06/24 17:37:56;;;;;;;9.10;4.68;;;27.00;79.30;;;;;;4999546;28;19948;-74
2022/06/24 17:40:22;;;;;;;9.10;3.75;;;27.00;79.60;;;;;;5004592;28;20113;-71
2022/06/24 17:43:05;;;;;;;;;;;27.00;80.00;;;;;;4997808;28;20112;-73
2022/06/24 17:45:33;;;;;;;8.30;3.50;;;27.00;79.50;;;;;;4997843;28;20250;-75
2022/06/24 17:47:59;;;;;;;6.13;3.05;;;26.90;79.50;;;;;;5001557;28;20088;-73
2022/06/24 17:50:25;;;;;;;;;;;26.90;79.70;;;;;;4997942;28;20482;-74
2022/06/24 17:52:52;;;;;;;6.80;3.60;;;26.90;79.60;;;;;;5000341;28;19914;-73
2022/06/24 17:55:19;;;;;;;5.32;3.38;;;26.90;79.20;;;;;;4998211;28;20017;-74
2022/06/24 17:57:46;;;;;;;7.30;4.10;;;26.80;79.20;;;;;;4994608;28;20030;-74
2022/06/24 18:00:12;;;;;;;7.85;3.53;;;26.70;79.40;;;;;;5002699;28;20109;-76
2022/06/24 18:02:38;;;;;;;12.05;3.75;;;26.70;79.50;;;;;;4997686;28;20021;-72
2022/06/24 18:05:04;;;;;;;;;;;26.70;79.60;;;;;;5002729;28;20028;-72
2022/06/24 18:07:31;;;;;;;6.75;4.13;;;26.70;79.70;;;;;;4997671;28;19952;-72
2022/06/24 18:09:59;;;;;;;6.68;3.45;;;26.60;79.80;;;;;;4999569;28;20030;-72
2022/06/24 18:12:25;;;;;;;13.30;3.95;;;26.60;80.10;;;;;;5001890;28;20132;-72
2022/06/24 18:14:53;;;;;;;5.70;3.40;;;26.60;80.00;;;;;;5000904;28;20042;-72
2022/06/24 18:17:20;;;;;;;3.97;3.05;;;26.50;80.10;;;;;;5000166;28;20072;-73
2022/06/24 18:19:49;;;;;;;6.35;4.30;;;26.50;80.20;;;;;;4997994;28;20077;-73
2022/06/24 18:22:15;;;;;;;9.85;4.60;;;26.40;80.20;;;;;;4998888;28;20018;-73
2022/06/24 18:24:42;;;;;;;;;;;26.40;80.90;;;;;;4997362;28;20143;-73
2022/06/24 18:37:21;;;;;;;4.88;3.28;;;26.10;81.40;;;;;;5023712;28;20102;-82
2022/06/24 18:39:48;;;;;;;8.63;3.60;;;26.10;81.40;;;;;;4992816;28;20569;-72
2022/06/24 18:42:14;;;;;;;6.53;3.50;;;26.10;81.60;;;;;;4998768;28;20022;-72
2022/06/24 18:44:40;;;;;;;;;;;26.10;81.50;;;;;;4993147;28;20018;-72
2022/06/24 18:47:07;;;;;;;6.88;3.53;;;26.00;81.80;;;;;;4992252;28;19912;-73
2022/06/24 18:49:34;;;;;;;11.35;3.97;;;25.90;81.70;;;;;;5001908;28;20026;-73
2022/06/24 18:52:01;;;;;;;8.40;3.78;;;26.00;81.90;;;;;;5001455;28;20045;-73
2022/06/24 18:54:28;;;;;;;5.88;3.20;;;26.00;81.50;;;;;;4999946;28;20030;-72
2022/06/24 18:56:55;;;;;;;6.35;3.10;;;26.00;81.70;;;;;;4998277;28;20041;-72
2022/06/24 18:59:20;;;;;;;6.88;4.15;;;26.00;81.40;;;;;;4992489;28;20096;-74
2022/06/24 19:01:46;;;;;;;;;;;26.00;81.60;;;;;;4999260;28;20490;-71
2022/06/24 19:04:12;;;;;;;8.90;3.72;;;26.00;81.20;;;;;;4993558;28;20444;-72
2022/06/24 19:06:38;;;;;;;;;;;26.00;81.40;;;;;;5004232;28;20018;-72
2022/06/24 19:09:05;;;;;;;8.30;3.63;;;26.00;81.90;;;;;;5004529;28;19914;-72
2022/06/24 19:11:31;;;;;;;7.32;3.67;;;25.90;81.00;;;;;;4997989;28;20269;-71
2022/06/24 19:13:56;;;;;;;6.38;3.53;;;25.90;80.80;;;;;;4999867;28;20032;-73
2022/06/24 19:16:22;;;;;;;;;;;25.70;81.50;;;;;;4999495;28;20080;-80
2022/06/24 19:19:05;;;;;;;7.38;3.33;;;25.80;80.80;;;;;;5004163;28;20039;-76
2022/06/24 19:21:32;;;;;;;5.93;3.00;;;25.70;80.50;;;;;;4997347;28;20017;-75
2022/06/24 19:23:58;;;;;;;6.15;3.50;;;25.70;80.60;;;;;;5000238;28;20486;-74
2022/06/24 19:26:29;;;;;;;4.93;3.05;;;25.70;80.70;;;;;;4999323;28;20512;-76
2022/06/24 19:28:56;;;;;;;4.70;3.10;;;25.70;80.20;;;;;;4999918;28;20030;-73
2022/06/24 19:31:25;;;;;;;6.82;3.47;;;25.60;80.10;;;;;;4992061;28;20053;-74
2022/06/24 19:33:52;;;;;;;5.88;3.10;;;25.60;80.10;;;;;;4996002;28;20034;-74
2022/06/24 19:36:20;;;;;;;5.72;3.20;;;25.50;79.90;;;;;;4994229;28;20040;-74
2022/06/24 19:38:46;;;;;;;4.40;2.90;;;25.50;80.10;;;;;;5001603;28;20029;-71
2022/06/24 19:41:12;;;;;;;4.55;2.90;;;25.40;79.80;;;;;;4995523;28;20044;-72
2022/06/24 19:43:39;;;;;;;3.80;2.67;;;25.40;80.10;;;;;;4998759;28;20030;-72
2022/06/24 19:46:06;;;;;;;6.30;3.10;;;25.40;80.10;;;;;;4998418;28;20129;-72
2022/06/24 19:48:32;;;;;;;5.10;3.08;;;25.30;79.80;;;;;;4996830;28;20053;-72
2022/06/24 19:50:58;;;;;;;6.68;4.30;;;25.30;80.00;;;;;;5001794;28;20030;-76
2022/06/24 19:53:24;;;;;;;4.70;3.08;;;25.30;79.50;;;;;;4994617;28;20034;-76
2022/06/24 19:55:51;;;;;;;5.72;3.17;;;25.30;79.70;;;;;;5004502;28;20022;-80
2022/06/24 19:58:17;;;;;;;5.85;3.97;;;25.30;79.50;;;;;;4997236;28;20092;-74
2022/06/24 20:00:43;;;;;;;4.82;3.08;;;25.20;80.00;;;;;;5000680;28;20463;-74
2022/06/24 20:05:56;;;;;;;6.80;3.03;;;25.10;79.50;;;;;;5003816;28;20299;-75
2022/06/24 20:08:33;;;;;;;6.03;3.13;;;25.10;79.50;;;;;;4995341;28;20659;-75
2022/06/24 20:11:01;;;;;;;;;;;25.10;79.50;;;;;;5001439;28;20081;-76
2022/06/24 20:13:31;;;;;;;3.33;2.63;;;25.20;79.10;;;;;;4997329;28;20633;-77
2022/06/24 20:15:58;;;;;;;4.65;3.03;;;25.10;79.40;;;;;;5002813;28;20436;-75
2022/06/24 20:18:31;;;;;;;4.35;2.53;;;25.10;79.70;;;;;;5002112;28;20029;-75
2022/06/24 20:21:00;;;;;;;8.77;3.63;;;25.00;79.80;;;;;;5005832;28;20064;-77
2022/06/24 20:23:29;;;;;;;6.00;3.63;;;25.00;79.60;;;;;;5000091;28;20045;-75
2022/06/24 20:26:05;;;;;;;5.10;3.05;;;25.00;79.40;;;;;;5003491;28;20018;-76
2022/06/24 20:28:34;;;;;;;6.47;2.67;;;25.00;79.50;;;;;;4998408;28;20504;-74
2022/06/24 20:31:03;;;;;;;11.15;4.35;;;25.00;78.80;;;;;;5001394;28;20041;-75
2022/06/24 20:33:30;;;;;;;4.25;2.83;;;25.00;78.80;;;;;;5001465;28;20028;-78
2022/06/24 20:35:58;;;;;;;5.35;3.00;;;24.90;79.30;;;;;;5005633;28;20021;-78
2022/06/24 20:38:29;;;;;;;5.45;2.80;;;24.90;79.20;;;;;;5002308;28;20033;-78
2022/06/24 20:43:30;;;;;;;4.50;2.40;;;24.90;79.30;;;;;;5950584;22;20062;-79
2022/06/24 20:46:04;;;;;;;5.55;2.80;;;24.90;79.00;;;;;;5108497;22;20049;-79
2022/06/24 20:48:32;;;;;;;6.40;2.53;;;24.90;78.60;;;;;;4996643;28;20025;-79
2022/06/24 20:51:01;;;;;;;4.63;2.95;;;24.90;78.60;;;;;;5008350;28;20022;-80
2022/06/24 20:56:02;;;;;;;6.32;2.90;;;24.90;78.50;;;;;;5753716;22;20042;-79
2022/06/24 20:58:35;;;;;;;3.47;2.40;;;24.90;78.50;;;;;;4999409;28;20635;-79
2022/06/24 21:01:05;;;;;;;2.88;2.40;;;24.90;78.60;;;;;;5009207;28;20087;-79
2022/06/24 21:03:35;;;;;;;6.22;3.25;;;24.90;78.60;;;;;;4997793;28;20494;-79
2022/06/24 21:06:08;;;;;;;6.00;2.88;;;24.90;78.80;;;;;;5004622;28;20034;-77
2022/06/24 21:08:35;;;;;;;4.00;2.70;;;25.00;78.40;;;;;;4997233;28;20026;-78
2022/06/24 21:11:04;;;;;;;3.45;2.63;;;24.90;78.50;;;;;;5000754;28;20071;-79
2022/06/24 21:13:37;;;;;;;8.85;3.20;;;24.90;78.50;;;;;;4998565;28;20805;-79
2022/06/24 21:16:05;;;;;;;3.75;2.28;;;24.90;79.20;;;;;;4990562;28;20117;-79
2022/06/24 21:18:34;;;;;;;6.25;2.30;;;24.90;78.60;;;;;;4993558;28;20298;-78
2022/06/24 21:21:02;;;;;;;4.35;2.35;;;24.80;78.90;;;;;;4982184;28;20019;-79
2022/06/24 21:23:37;;;;;;;9.00;3.10;;;24.80;78.60;;;;;;4981436;28;20045;-81
2022/06/24 21:26:04;;;;;;;3.00;2.60;;;24.80;79.10;;;;;;5009933;28;20027;-79
2022/06/24 21:28:36;;;;;;;7.15;2.47;;;24.80;79.00;;;;;;4980569;28;20602;-79
2022/06/24 21:31:04;;;;;;;5.85;2.67;;;24.80;78.80;;;;;;4996597;28;20026;-79
2022/06/24 21:33:42;;;;;;;6.03;2.92;;;24.70;79.00;;;;;;4977844;28;20069;-79
